sensor_id;sensor_type;location;lat;lon;timestamp;pressure;altitude;pressure_sealevel;temperature;humidity
56456;BME280;42354;53.218;6.564;2023-03-19T00:00:06;46979.06;;;-142.92;100.00
56456;BME280;42354;53.218;6.564;2023-03-19T00:02:35;46989.34;;;-142.92;100.00
56456;BME280;42354;53.218;6.564;2023-03-19T00:05:01;46993.44;;;-142.92;100.00
56456;BME280;42354;53.218;6.564;2023-03-19T00:07:28;46997.53;;;-142.92;100.00
56456;BME280;42354;53.218;6.564;2023-03-19T00:09:54;46991.38;;;-142.92;100.00
56456;BME280;42354;53.218;6.564;2023-03-19T00:12:19;46987.28;;;-142.92;100.00
56456;BME280;42354;53.218;6.564;2023-03-19T00:14:45;47011.91;;;-142.92;100.00
56456;BME280;42354;53.218;6.564;2023-03-19T00:17:10;46999.59;;;-142.92;100.00
56456;BME280;42354;53.218;6.564;2023-03-19T00:19:36;46979.06;;;-142.92;100.00
56456;BME280;42354;53.218;6.564;2023-03-19T00:22:03;46999.59;;;-142.92;100.00
56456;BME280;42354;53.218;6.564;2023-03-19T00:24:29;47001.66;;;-142.92;100.00
56456;BME280;42354;53.218;6.564;2023-03-19T00:26:54;46983.19;;;-142.92;100.00
56456;BME280;42354;53.218;6.564;2023-03-19T00:29:20;46995.50;;;-142.92;100.00
56456;BME280;42354;53.218;6.564;2023-03-19T00:31:49;46987.28;;;-142.92;100.00
56456;BME280;42354;53.218;6.564;2023-03-19T00:34:17;46981.13;;;-142.92;100.00
56456;BME280;42354;53.218;6.564;2023-03-19T00:36:44;46993.44;;;-142.92;100.00
56456;BME280;42354;53.218;6.564;2023-03-19T00:39:11;46993.44;;;-142.92;100.00
56456;BME280;42354;53.218;6.564;2023-03-19T00:41:37;46983.19;;;-142.92;100.00
56456;BME280;42354;53.218;6.564;2023-03-19T00:44:03;46993.44;;;-142.92;100.00
56456;BME280;42354;53.218;6.564;2023-03-19T00:46:31;46993.44;;;-142.92;100.00
56456;BME280;42354;53.218;6.564;2023-03-19T00:48:56;46974.97;;;-142.92;100.00
56456;BME280;42354;53.218;6.564;2023-03-19T00:51:23;46989.34;;;-142.92;100.00
56456;BME280;42354;53.218;6.564;2023-03-19T00:53:50;46983.19;;;-142.92;100.00
56456;BME280;42354;53.218;6.564;2023-03-19T00:56:16;47026.28;;;-142.92;100.00
56456;BME280;42354;53.218;6.564;2023-03-19T00:58:43;46987.28;;;-142.92;100.00
56456;BME280;42354;53.218;6.564;2023-03-19T01:01:10;46977.03;;;-142.92;100.00
56456;BME280;42354;53.218;6.564;2023-03-19T01:03:43;46983.19;;;-142.92;100.00
56456;BME280;42354;53.218;6.564;2023-03-19T01:06:09;46999.59;;;-142.92;100.00
56456;BME280;42354;53.218;6.564;2023-03-19T01:08:34;46981.13;;;-142.92;100.00
56456;BME280;42354;53.218;6.564;2023-03-19T01:11:08;46985.22;;;-142.92;100.00
56456;BME280;42354;53.218;6.564;2023-03-19T01:13:33;46991.38;;;-142.92;100.00
56456;BME280;42354;53.218;6.564;2023-03-19T01:15:59;46985.22;;;-142.92;100.00
56456;BME280;42354;53.218;6.564;2023-03-19T01:18:26;46995.50;;;-142.92;100.00
56456;BME280;42354;53.218;6.564;2023-03-19T01:20:51;46968.81;;;-142.92;100.00
56456;BME280;42354;53.218;6.564;2023-03-19T01:23:17;47001.66;;;-142.92;100.00
56456;BME280;42354;53.218;6.564;2023-03-19T01:25:46;46981.13;;;-142.92;100.00
56456;BME280;42354;53.218;6.564;2023-03-19T01:28:11;46983.19;;;-142.92;100.00
56456;BME280;42354;53.218;6.564;2023-03-19T01:30:37;46987.28;;;-142.92;100.00
56456;BME280;42354;53.218;6.564;2023-03-19T01:33:04;46981.13;;;-142.92;100.00
56456;BME280;42354;53.218;6.564;2023-03-19T01:35:30;46974.97;;;-142.92;100.00
56456;BME280;42354;53.218;6.564;2023-03-19T01:37:55;47001.66;;;-142.92;100.00
56456;BME280;42354;53.218;6.564;2023-03-19T01:40:21;46997.53;;;-142.92;100.00
56456;BME280;42354;53.218;6.564;2023-03-19T01:43:11;46993.44;;;-142.92;100.00
56456;BME280;42354;53.218;6.564;2023-03-19T01:45:39;46991.38;;;-142.92;100.00
56456;BME280;42354;53.218;6.564;2023-03-19T01:48:05;46989.34;;;-142.92;100.00
56456;BME280;42354;53.218;6.564;2023-03-19T01:50:38;46983.19;;;-142.92;100.00
56456;BME280;42354;53.218;6.564;2023-03-19T01:53:05;46966.75;;;-142.92;100.00
56456;BME280;42354;53.218;6.564;2023-03-19T01:55:32;46999.59;;;-142.92;100.00
56456;BME280;42354;53.218;6.564;2023-03-19T01:57:58;47013.97;;;-142.92;100.00
56456;BME280;42354;53.218;6.564;2023-03-19T02:00:26;46991.38;;;-142.92;100.00
56456;BME280;42354;53.218;6.564;2023-03-19T02:02:53;46997.53;;;-142.92;100.00
56456;BME280;42354;53.218;6.564;2023-03-19T02:05:22;46987.28;;;-142.92;100.00
56456;BME280;42354;53.218;6.564;2023-03-19T02:07:55;46987.28;;;-142.92;100.00
56456;BME280;42354;53.218;6.564;2023-03-19T02:10:23;46993.44;;;-142.92;100.00
56456;BME280;42354;53.218;6.564;2023-03-19T02:12:50;46987.28;;;-142.92;100.00
56456;BME280;42354;53.218;6.564;2023-03-19T02:15:16;46995.50;;;-142.92;100.00
56456;BME280;42354;53.218;6.564;2023-03-19T02:17:42;46989.34;;;-142.92;100.00
56456;BME280;42354;53.218;6.564;2023-03-19T02:20:32;46983.19;;;-142.92;100.00
56456;BME280;42354;53.218;6.564;2023-03-19T02:28:31;46983.19;;;-142.92;100.00
56456;BME280;42354;53.218;6.564;2023-03-19T02:30:57;46977.03;;;-142.92;100.00
56456;BME280;42354;53.218;6.564;2023-03-19T02:33:23;46995.50;;;-142.92;100.00
56456;BME280;42354;53.218;6.564;2023-03-19T02:35:51;46993.44;;;-142.92;100.00
56456;BME280;42354;53.218;6.564;2023-03-19T02:38:17;47001.66;;;-142.92;100.00
56456;BME280;42354;53.218;6.564;2023-03-19T02:41:05;46993.44;;;-142.92;100.00
56456;BME280;42354;53.218;6.564;2023-03-19T02:43:32;46999.59;;;-142.92;100.00
56456;BME280;42354;53.218;6.564;2023-03-19T02:45:58;46977.03;;;-142.92;100.00
56456;BME280;42354;53.218;6.564;2023-03-19T02:48:24;46985.22;;;-142.92;100.00
56456;BME280;42354;53.218;6.564;2023-03-19T02:50:51;46987.28;;;-142.92;100.00
56456;BME280;42354;53.218;6.564;2023-03-19T02:53:17;46974.97;;;-142.92;100.00
56456;BME280;42354;53.218;6.564;2023-03-19T02:55:42;46999.59;;;-142.92;100.00
56456;BME280;42354;53.218;6.564;2023-03-19T02:58:08;46981.13;;;-142.92;100.00
56456;BME280;42354;53.218;6.564;2023-03-19T03:00:36;47007.81;;;-142.92;100.00
56456;BME280;42354;53.218;6.564;2023-03-19T03:03:01;46997.53;;;-142.92;100.00
56456;BME280;42354;53.218;6.564;2023-03-19T03:05:27;47011.91;;;-142.92;100.00
56456;BME280;42354;53.218;6.564;2023-03-19T03:07:53;46989.34;;;-142.92;100.00
56456;BME280;42354;53.218;6.564;2023-03-19T03:10:19;47013.97;;;-142.92;100.00
56456;BME280;42354;53.218;6.564;2023-03-19T03:12:44;47003.69;;;-142.92;100.00
56456;BME280;42354;53.218;6.564;2023-03-19T03:15:11;47013.97;;;-142.92;100.00
56456;BME280;42354;53.218;6.564;2023-03-19T03:17:40;46983.19;;;-142.92;100.00
56456;BME280;42354;53.218;6.564;2023-03-19T03:20:06;46987.28;;;-142.92;100.00
56456;BME280;42354;53.218;6.564;2023-03-19T03:22:32;46995.50;;;-142.92;100.00
56456;BME280;42354;53.218;6.564;2023-03-19T03:24:59;46989.34;;;-142.92;100.00
56456;BME280;42354;53.218;6.564;2023-03-19T03:27:25;46991.38;;;-142.92;100.00
56456;BME280;42354;53.218;6.564;2023-03-19T03:29:51;47001.66;;;-142.92;100.00
56456;BME280;42354;53.218;6.564;2023-03-19T03:32:16;46999.59;;;-142.92;100.00
56456;BME280;42354;53.218;6.564;2023-03-19T03:34:42;46991.38;;;-142.92;100.00
56456;BME280;42354;53.218;6.564;2023-03-19T03:37:07;47011.91;;;-142.92;100.00
56456;BME280;42354;53.218;6.564;2023-03-19T03:39:33;46993.44;;;-142.92;100.00
56456;BME280;42354;53.218;6.564;2023-03-19T03:42:02;46995.50;;;-142.92;100.00
56456;BME280;42354;53.218;6.564;2023-03-19T03:44:28;46989.34;;;-142.92;100.00
56456;BME280;42354;53.218;6.564;2023-03-19T03:46:53;47003.69;;;-142.92;100.00
56456;BME280;42354;53.218;6.564;2023-03-19T03:49:18;47001.66;;;-142.92;100.00
56456;BME280;42354;53.218;6.564;2023-03-19T03:51:44;46999.59;;;-142.92;100.00
56456;BME280;42354;53.218;6.564;2023-03-19T03:54:09;46989.34;;;-142.92;100.00
56456;BME280;42354;53.218;6.564;2023-03-19T03:56:35;46983.19;;;-142.92;100.00
56456;BME280;42354;53.218;6.564;2023-03-19T03:59:02;46987.28;;;-142.92;100.00
56456;BME280;42354;53.218;6.564;2023-03-19T04:01:28;46997.53;;;-142.92;100.00
56456;BME280;42354;53.218;6.564;2023-03-19T04:03:54;46997.53;;;-142.92;100.00
56456;BME280;42354;53.218;6.564;2023-03-19T04:06:21;47001.66;;;-142.92;100.00
56456;BME280;42354;53.218;6.564;2023-03-19T04:08:47;46991.38;;;-142.92;100.00
56456;BME280;42354;53.218;6.564;2023-03-19T04:11:15;46987.28;;;-142.92;100.00
56456;BME280;42354;53.218;6.564;2023-03-19T04:13:40;46991.38;;;-142.92;100.00
56456;BME280;42354;53.218;6.564;2023-03-19T04:16:08;46993.44;;;-142.92;100.00
56456;BME280;42354;53.218;6.564;2023-03-19T04:18:34;46987.28;;;-142.92;100.00
56456;BME280;42354;53.218;6.564;2023-03-19T04:20:59;46981.13;;;-142.92;100.00
56456;BME280;42354;53.218;6.564;2023-03-19T04:23:26;47003.69;;;-142.92;100.00
56456;BME280;42354;53.218;6.564;2023-03-19T04:25:51;46987.28;;;-142.92;100.00
56456;BME280;42354;53.218;6.564;2023-03-19T04:28:17;46999.59;;;-142.92;100.00
56456;BME280;42354;53.218;6.564;2023-03-19T04:30:42;46993.44;;;-142.92;100.00
56456;BME280;42354;53.218;6.564;2023-03-19T04:33:09;46983.19;;;-142.92;100.00
56456;BME280;42354;53.218;6.564;2023-03-19T04:35:35;46995.50;;;-142.92;100.00
56456;BME280;42354;53.218;6.564;2023-03-19T04:38:01;46987.28;;;-142.92;100.00
56456;BME280;42354;53.218;6.564;2023-03-19T04:40:27;46974.97;;;-142.92;100.00
56456;BME280;42354;53.218;6.564;2023-03-19T04:42:52;46981.13;;;-142.92;100.00
56456;BME280;42354;53.218;6.564;2023-03-19T04:45:18;46972.91;;;-142.92;100.00
56456;BME280;42354;53.218;6.564;2023-03-19T04:47:43;46987.28;;;-142.92;100.00
56456;BME280;42354;53.218;6.564;2023-03-19T04:50:10;47001.66;;;-142.92;100.00
56456;BME280;42354;53.218;6.564;2023-03-19T04:52:37;47007.81;;;-142.92;100.00
56456;BME280;42354;53.218;6.564;2023-03-19T04:55:04;46991.38;;;-142.92;100.00
56456;BME280;42354;53.218;6.564;2023-03-19T04:57:29;47003.69;;;-142.92;100.00
56456;BME280;42354;53.218;6.564;2023-03-19T04:59:55;46979.06;;;-142.92;100.00
56456;BME280;42354;53.218;6.564;2023-03-19T05:02:20;46985.22;;;-142.92;100.00
56456;BME280;42354;53.218;6.564;2023-03-19T05:04:46;46997.53;;;-142.92;100.00
56456;BME280;42354;53.218;6.564;2023-03-19T05:07:11;46995.50;;;-142.92;100.00
56456;BME280;42354;53.218;6.564;2023-03-19T05:09:36;46995.50;;;-142.92;100.00
56456;BME280;42354;53.218;6.564;2023-03-19T05:12:02;46977.03;;;-142.92;100.00
56456;BME280;42354;53.218;6.564;2023-03-19T05:14:27;46989.34;;;-142.92;100.00
56456;BME280;42354;53.218;6.564;2023-03-19T05:16:53;46995.50;;;-142.92;100.00
56456;BME280;42354;53.218;6.564;2023-03-19T05:19:18;47003.69;;;-142.92;100.00
56456;BME280;42354;53.218;6.564;2023-03-19T05:21:43;46987.28;;;-142.92;100.00
56456;BME280;42354;53.218;6.564;2023-03-19T05:24:09;46977.03;;;-142.92;100.00
56456;BME280;42354;53.218;6.564;2023-03-19T05:26:35;46991.38;;;-142.92;100.00
56456;BME280;42354;53.218;6.564;2023-03-19T05:29:03;46987.28;;;-142.92;100.00
56456;BME280;42354;53.218;6.564;2023-03-19T05:31:29;46987.28;;;-142.92;100.00
56456;BME280;42354;53.218;6.564;2023-03-19T05:33:54;47005.75;;;-142.92;100.00
56456;BME280;42354;53.218;6.564;2023-03-19T05:36:19;46991.38;;;-142.92;100.00
56456;BME280;42354;53.218;6.564;2023-03-19T05:38:45;47001.66;;;-142.92;100.00
56456;BME280;42354;53.218;6.564;2023-03-19T05:41:10;46993.44;;;-142.92;100.00
56456;BME280;42354;53.218;6.564;2023-03-19T05:43:36;46991.38;;;-142.92;100.00
56456;BME280;42354;53.218;6.564;2023-03-19T05:46:03;46983.19;;;-142.92;100.00
56456;BME280;42354;53.218;6.564;2023-03-19T05:48:30;46997.53;;;-142.92;100.00
56456;BME280;42354;53.218;6.564;2023-03-19T05:50:56;46997.53;;;-142.92;100.00
56456;BME280;42354;53.218;6.564;2023-03-19T05:53:22;46981.13;;;-142.92;100.00
56456;BME280;42354;53.218;6.564;2023-03-19T05:55:48;46985.22;;;-142.92;100.00
56456;BME280;42354;53.218;6.564;2023-03-19T05:58:14;46991.38;;;-142.92;100.00
56456;BME280;42354;53.218;6.564;2023-03-19T06:00:42;46977.03;;;-142.92;100.00
56456;BME280;42354;53.218;6.564;2023-03-19T06:03:07;46999.59;;;-142.92;100.00
56456;BME280;42354;53.218;6.564;2023-03-19T06:05:34;46987.28;;;-142.92;100.00
56456;BME280;42354;53.218;6.564;2023-03-19T06:07:59;46987.28;;;-142.92;100.00
56456;BME280;42354;53.218;6.564;2023-03-19T06:10:25;46987.28;;;-142.92;100.00
56456;BME280;42354;53.218;6.564;2023-03-19T06:12:51;46987.28;;;-142.92;100.00
56456;BME280;42354;53.218;6.564;2023-03-19T06:15:16;46995.50;;;-142.92;100.00
56456;BME280;42354;53.218;6.564;2023-03-19T06:17:42;47001.66;;;-142.92;100.00
56456;BME280;42354;53.218;6.564;2023-03-19T06:20:10;46972.91;;;-142.92;100.00
56456;BME280;42354;53.218;6.564;2023-03-19T06:22:36;46989.34;;;-142.92;100.00
56456;BME280;42354;53.218;6.564;2023-03-19T06:25:02;46995.50;;;-142.92;100.00
56456;BME280;42354;53.218;6.564;2023-03-19T06:27:27;46999.59;;;-142.92;100.00
56456;BME280;42354;53.218;6.564;2023-03-19T06:29:52;46995.50;;;-142.92;100.00
56456;BME280;42354;53.218;6.564;2023-03-19T06:32:18;46995.50;;;-142.92;100.00
56456;BME280;42354;53.218;6.564;2023-03-19T06:34:43;46999.59;;;-142.92;100.00
56456;BME280;42354;53.218;6.564;2023-03-19T06:37:09;47009.84;;;-142.92;100.00
56456;BME280;42354;53.218;6.564;2023-03-19T06:39:34;46991.38;;;-142.92;100.00
56456;BME280;42354;53.218;6.564;2023-03-19T06:41:59;46999.59;;;-142.92;100.00
56456;BME280;42354;53.218;6.564;2023-03-19T06:44:25;46993.44;;;-142.92;100.00
56456;BME280;42354;53.218;6.564;2023-03-19T06:46:50;47003.69;;;-142.92;100.00
56456;BME280;42354;53.218;6.564;2023-03-19T06:49:15;46981.13;;;-142.92;100.00
56456;BME280;42354;53.218;6.564;2023-03-19T06:51:42;47001.66;;;-142.92;100.00
56456;BME280;42354;53.218;6.564;2023-03-19T06:54:08;46995.50;;;-142.92;100.00
56456;BME280;42354;53.218;6.564;2023-03-19T06:56:33;47001.66;;;-142.92;100.00
56456;BME280;42354;53.218;6.564;2023-03-19T06:58:58;46997.53;;;-142.92;100.00
56456;BME280;42354;53.218;6.564;2023-03-19T07:01:24;47016.00;;;-142.92;100.00
56456;BME280;42354;53.218;6.564;2023-03-19T07:03:49;47003.69;;;-142.92;100.00
56456;BME280;42354;53.218;6.564;2023-03-19T07:06:15;46983.19;;;-142.92;100.00
56456;BME280;42354;53.218;6.564;2023-03-19T07:08:40;46993.44;;;-142.92;100.00
56456;BME280;42354;53.218;6.564;2023-03-19T07:11:10;46993.44;;;-142.92;100.00
56456;BME280;42354;53.218;6.564;2023-03-19T07:13:36;47007.81;;;-142.92;100.00
56456;BME280;42354;53.218;6.564;2023-03-19T07:16:02;46987.28;;;-142.92;100.00
56456;BME280;42354;53.218;6.564;2023-03-19T07:18:27;46995.50;;;-142.92;100.00
56456;BME280;42354;53.218;6.564;2023-03-19T07:20:53;46999.59;;;-142.92;100.00
56456;BME280;42354;53.218;6.564;2023-03-19T07:23:18;47018.06;;;-142.92;100.00
56456;BME280;42354;53.218;6.564;2023-03-19T07:25:44;46999.59;;;-142.92;100.00
56456;BME280;42354;53.218;6.564;2023-03-19T07:28:09;46999.59;;;-142.92;100.00
56456;BME280;42354;53.218;6.564;2023-03-19T07:30:35;47001.66;;;-142.92;100.00
56456;BME280;42354;53.218;6.564;2023-03-19T07:33:03;46989.34;;;-142.92;100.00
56456;BME280;42354;53.218;6.564;2023-03-19T07:35:28;46974.97;;;-142.92;100.00
56456;BME280;42354;53.218;6.564;2023-03-19T07:37:53;47009.84;;;-142.92;100.00
56456;BME280;42354;53.218;6.564;2023-03-19T07:40:19;46993.44;;;-142.92;99.62
56456;BME280;42354;53.218;6.564;2023-03-19T07:42:45;46991.38;;;-142.92;99.28
56456;BME280;42354;53.218;6.564;2023-03-19T07:45:11;46993.44;;;-142.92;98.90
56456;BME280;42354;53.218;6.564;2023-03-19T07:47:36;46999.59;;;-142.92;97.80
56456;BME280;42354;53.218;6.564;2023-03-19T07:50:02;46991.38;;;-142.92;97.23
56456;BME280;42354;53.218;6.564;2023-03-19T07:52:28;47003.69;;;-142.92;97.04
56456;BME280;42354;53.218;6.564;2023-03-19T07:54:53;47013.97;;;-142.92;95.60
56456;BME280;42354;53.218;6.564;2023-03-19T07:57:19;47007.81;;;-142.92;95.43
56456;BME280;42354;53.218;6.564;2023-03-19T07:59:45;46987.28;;;-142.92;95.12
56456;BME280;42354;53.218;6.564;2023-03-19T08:02:11;46993.44;;;-142.92;94.66
56456;BME280;42354;53.218;6.564;2023-03-19T08:04:37;46991.38;;;-142.92;93.54
56456;BME280;42354;53.218;6.564;2023-03-19T08:07:04;47007.81;;;-142.92;93.36
56456;BME280;42354;53.218;6.564;2023-03-19T08:09:31;47001.66;;;-142.92;93.00
56456;BME280;42354;53.218;6.564;2023-03-19T08:11:56;47011.91;;;-142.92;93.15
56456;BME280;42354;53.218;6.564;2023-03-19T08:14:21;46991.38;;;-142.92;92.60
56456;BME280;42354;53.218;6.564;2023-03-19T08:16:48;46987.28;;;-142.92;92.16
56456;BME280;42354;53.218;6.564;2023-03-19T08:19:13;46999.59;;;-142.92;91.18
56456;BME280;42354;53.218;6.564;2023-03-19T08:21:39;46997.53;;;-142.92;90.37
56456;BME280;42354;53.218;6.564;2023-03-19T08:24:05;46995.50;;;-142.92;87.58
56456;BME280;42354;53.218;6.564;2023-03-19T08:26:30;46997.53;;;-142.92;88.30
56456;BME280;42354;53.218;6.564;2023-03-19T08:28:58;47007.81;;;-142.92;88.67
56456;BME280;42354;53.218;6.564;2023-03-19T08:31:23;46991.38;;;-142.92;88.44
56456;BME280;42354;53.218;6.564;2023-03-19T08:33:49;46995.50;;;-142.92;87.41
56456;BME280;42354;53.218;6.564;2023-03-19T08:36:15;47009.84;;;-142.92;86.31
56456;BME280;42354;53.218;6.564;2023-03-19T08:38:41;47007.81;;;-142.92;86.42
56456;BME280;42354;53.218;6.564;2023-03-19T08:41:07;46991.38;;;-142.92;83.54
56456;BME280;42354;53.218;6.564;2023-03-19T08:43:34;46987.28;;;-142.92;83.12
56456;BME280;42354;53.218;6.564;2023-03-19T08:46:04;46997.53;;;-142.92;83.27
56456;BME280;42354;53.218;6.564;2023-03-19T08:48:30;46997.53;;;-142.92;83.88
56456;BME280;42354;53.218;6.564;2023-03-19T08:50:59;46997.53;;;-142.92;83.32
56456;BME280;42354;53.218;6.564;2023-03-19T08:53:27;46995.50;;;-142.92;84.02
56456;BME280;42354;53.218;6.564;2023-03-19T08:55:53;47007.81;;;-142.92;84.65
56456;BME280;42354;53.218;6.564;2023-03-19T08:58:21;47007.81;;;-142.92;84.88
56456;BME280;42354;53.218;6.564;2023-03-19T09:00:47;46993.44;;;-142.92;84.35
56456;BME280;42354;53.218;6.564;2023-03-19T09:03:13;47011.91;;;-142.92;84.80
56456;BME280;42354;53.218;6.564;2023-03-19T09:05:39;46991.38;;;-142.92;84.59
56456;BME280;42354;53.218;6.564;2023-03-19T09:08:04;46995.50;;;-142.92;84.69
56456;BME280;42354;53.218;6.564;2023-03-19T09:10:30;46987.28;;;-142.92;82.85
56456;BME280;42354;53.218;6.564;2023-03-19T09:12:55;47007.81;;;-142.92;81.46
56456;BME280;42354;53.218;6.564;2023-03-19T09:15:21;47003.69;;;-142.92;80.70
56456;BME280;42354;53.218;6.564;2023-03-19T09:17:46;47001.66;;;-142.92;79.96
56456;BME280;42354;53.218;6.564;2023-03-19T09:20:12;46995.50;;;-142.92;79.12
56456;BME280;42354;53.218;6.564;2023-03-19T09:22:37;46987.28;;;-142.92;78.48
56456;BME280;42354;53.218;6.564;2023-03-19T09:25:02;47028.31;;;-142.92;77.72
56456;BME280;42354;53.218;6.564;2023-03-19T09:27:28;46979.06;;;-142.92;77.02
56456;BME280;42354;53.218;6.564;2023-03-19T09:29:54;47005.75;;;-142.92;77.02
56456;BME280;42354;53.218;6.564;2023-03-19T09:32:19;47003.69;;;-142.92;75.51
56456;BME280;42354;53.218;6.564;2023-03-19T09:34:45;46991.38;;;-142.92;75.87
56456;BME280;42354;53.218;6.564;2023-03-19T09:37:11;46991.38;;;-142.92;75.91
56456;BME280;42354;53.218;6.564;2023-03-19T09:39:37;46997.53;;;-142.92;76.14
56456;BME280;42354;53.218;6.564;2023-03-19T09:44:37;46985.22;;;-142.92;75.98
56456;BME280;42354;53.218;6.564;2023-03-19T09:47:33;46979.06;;;-142.92;77.00
56456;BME280;42354;53.218;6.564;2023-03-19T09:50:04;46995.50;;;-142.92;77.22
56456;BME280;42354;53.218;6.564;2023-03-19T09:52:47;46974.97;;;-142.92;77.95
56456;BME280;42354;53.218;6.564;2023-03-19T09:57:52;46999.59;;;-142.92;78.01
56456;BME280;42354;53.218;6.564;2023-03-19T10:00:46;46997.53;;;-142.92;76.90
56456;BME280;42354;53.218;6.564;2023-03-19T10:16:42;47016.00;;;-142.92;75.84
56456;BME280;42354;53.218;6.564;2023-03-19T10:19:13;46997.53;;;-142.92;75.75
56456;BME280;42354;53.218;6.564;2023-03-19T10:21:54;46995.50;;;-142.92;75.03
56456;BME280;42354;53.218;6.564;2023-03-19T10:24:39;47009.84;;;-142.92;74.71
56456;BME280;42354;53.218;6.564;2023-03-19T10:27:19;47001.66;;;-142.92;74.95
56456;BME280;42354;53.218;6.564;2023-03-19T10:29:46;46985.22;;;-142.92;74.83
56456;BME280;42354;53.218;6.564;2023-03-19T10:32:38;47007.81;;;-142.92;74.15
56456;BME280;42354;53.218;6.564;2023-03-19T10:35:22;47007.81;;;-142.92;73.37
56456;BME280;42354;53.218;6.564;2023-03-19T10:37:49;46991.38;;;-142.92;74.14
56456;BME280;42354;53.218;6.564;2023-03-19T10:40:32;46987.28;;;-142.92;72.88
56456;BME280;42354;53.218;6.564;2023-03-19T10:43:15;46987.28;;;-142.92;73.09
56456;BME280;42354;53.218;6.564;2023-03-19T10:45:41;46991.38;;;-142.92;73.41
56456;BME280;42354;53.218;6.564;2023-03-19T10:48:12;46997.53;;;-142.92;72.56
56456;BME280;42354;53.218;6.564;2023-03-19T10:53:36;47016.00;;;-142.92;72.45
56456;BME280;42354;53.218;6.564;2023-03-19T10:56:25;46983.19;;;-142.92;71.89
56456;BME280;42354;53.218;6.564;2023-03-19T10:58:57;47007.81;;;-142.92;69.48
56456;BME280;42354;53.218;6.564;2023-03-19T11:01:25;47009.84;;;-142.92;71.73
56456;BME280;42354;53.218;6.564;2023-03-19T11:03:56;46983.19;;;-142.92;73.13
56456;BME280;42354;53.218;6.564;2023-03-19T11:06:31;46979.06;;;-142.92;72.23
56456;BME280;42354;53.218;6.564;2023-03-19T11:11:33;46991.38;;;-142.92;74.50
56456;BME280;42354;53.218;6.564;2023-03-19T11:14:51;46981.13;;;-142.92;75.22
56456;BME280;42354;53.218;6.564;2023-03-19T11:19:33;47007.81;;;-142.92;75.87
56456;BME280;42354;53.218;6.564;2023-03-19T11:22:16;47001.66;;;-142.92;76.31
56456;BME280;42354;53.218;6.564;2023-03-19T11:24:49;47005.75;;;-142.92;76.97
56456;BME280;42354;53.218;6.564;2023-03-19T11:27:17;47003.69;;;-142.92;77.84
56456;BME280;42354;53.218;6.564;2023-03-19T11:29:44;46993.44;;;-142.92;78.02
56456;BME280;42354;53.218;6.564;2023-03-19T11:34:57;46991.38;;;-142.92;78.88
56456;BME280;42354;53.218;6.564;2023-03-19T11:43:26;46985.22;;;-142.92;77.79
56456;BME280;42354;53.218;6.564;2023-03-19T11:49:31;46985.22;;;-142.92;74.92
56456;BME280;42354;53.218;6.564;2023-03-19T11:52:28;46999.59;;;-142.92;74.99
56456;BME280;42354;53.218;6.564;2023-03-19T11:58:41;46987.28;;;-142.92;74.94
56456;BME280;42354;53.218;6.564;2023-03-19T12:01:35;46995.50;;;-142.92;75.93
56456;BME280;42354;53.218;6.564;2023-03-19T12:04:28;46991.38;;;-142.92;76.18
56456;BME280;42354;53.218;6.564;2023-03-19T12:14:49;46995.50;;;-142.92;77.17
56456;BME280;42354;53.218;6.564;2023-03-19T12:17:23;46993.44;;;-142.92;77.28
56456;BME280;42354;53.218;6.564;2023-03-19T12:22:39;47005.75;;;-142.92;75.94
56456;BME280;42354;53.218;6.564;2023-03-19T12:25:29;46983.19;;;-142.92;74.21
56456;BME280;42354;53.218;6.564;2023-03-19T12:28:09;46989.34;;;-142.92;74.33
56456;BME280;42354;53.218;6.564;2023-03-19T12:30:41;46991.38;;;-142.92;75.76
56456;BME280;42354;53.218;6.564;2023-03-19T12:33:35;46997.53;;;-142.92;77.02
56456;BME280;42354;53.218;6.564;2023-03-19T12:36:09;46989.34;;;-142.92;77.05
56456;BME280;42354;53.218;6.564;2023-03-19T12:38:39;47007.81;;;-142.92;77.70
56456;BME280;42354;53.218;6.564;2023-03-19T12:41:09;47016.00;;;-142.92;78.23
56456;BME280;42354;53.218;6.564;2023-03-19T12:43:57;46995.50;;;-142.92;78.24
56456;BME280;42354;53.218;6.564;2023-03-19T12:46:37;47020.13;;;-142.92;79.87
56456;BME280;42354;53.218;6.564;2023-03-19T12:51:38;47003.69;;;-142.92;80.47
56456;BME280;42354;53.218;6.564;2023-03-19T12:54:29;46991.38;;;-142.92;80.49
56456;BME280;42354;53.218;6.564;2023-03-19T13:05:46;47007.81;;;-142.92;78.88
56456;BME280;42354;53.218;6.564;2023-03-19T13:08:22;46999.59;;;-142.92;79.01
56456;BME280;42354;53.218;6.564;2023-03-19T13:10:51;47009.84;;;-142.92;79.19
56456;BME280;42354;53.218;6.564;2023-03-19T13:15:58;47001.66;;;-142.92;78.45
56456;BME280;42354;53.218;6.564;2023-03-19T13:18:46;46987.28;;;-142.92;79.07
56456;BME280;42354;53.218;6.564;2023-03-19T13:21:33;46983.19;;;-142.92;79.09
56456;BME280;42354;53.218;6.564;2023-03-19T13:26:34;46991.38;;;-142.92;80.27
56456;BME280;42354;53.218;6.564;2023-03-19T13:31:33;46991.38;;;-142.92;81.77
56456;BME280;42354;53.218;6.564;2023-03-19T13:34:06;46993.44;;;-142.92;82.80
56456;BME280;42354;53.218;6.564;2023-03-19T13:36:42;46995.50;;;-142.92;82.95
56456;BME280;42354;53.218;6.564;2023-03-19T13:39:13;46991.38;;;-142.92;83.41
56456;BME280;42354;53.218;6.564;2023-03-19T13:46:47;46985.22;;;-142.92;83.42
56456;BME280;42354;53.218;6.564;2023-03-19T13:49:29;46997.53;;;-142.92;83.07
56456;BME280;42354;53.218;6.564;2023-03-19T13:54:42;47001.66;;;-142.92;83.99
56456;BME280;42354;53.218;6.564;2023-03-19T13:59:41;46995.50;;;-142.92;85.71
56456;BME280;42354;53.218;6.564;2023-03-19T14:05:05;46977.03;;;-142.92;85.89
56456;BME280;42354;53.218;6.564;2023-03-19T14:07:39;47016.00;;;-142.92;86.59
56456;BME280;42354;53.218;6.564;2023-03-19T14:10:12;46987.28;;;-142.92;87.11